aviador You're here:

CYRV Decoded Metar

REVELSTOKE AIRPO in BC, CANADA
Report Time2017-04-30 14:00:00
UTC Time2017-04-30 14:55:19
Flight Rules mvfr MVFR
WindCalm
Visibility9999 m
Phenomena:Light Rain
Clouds:Overcast 010 Hf
Expected CloudBase > 400 ft AGL from Temp-Dew spread
Ceiling1,000 ft
Temp06°C (ISA -6)
Dew Point05°C (93% RH)
AAT4.9°C
QNH1014 hPa
Density Alt807 ft
Elevation1,453 ft
Report Wrong Elevation
Raw Report
CYRV 301400Z AUTO 00000KT 9SM -RA OVC010 06/05 A2995 RMK
SLP154=

Extra information for CYRV:More info

Metar Taf Metar & Taf Last 4 Metars F.Rules Stats Wind Profile Meteogram Temp Stats Airport Information Weather charts Add Link Nearby VenuesMetar ALERT Operation Metar Decoded Social comments